sensor_id;sensor_type;location;lat;lon;timestamp;pressure;altitude;pressure_sealevel;temperature;humidity
55171;BME280;41060;47.510;8.680;2023-02-18T00:00:56;98217.69;;;14.18;47.83
55171;BME280;41060;47.510;8.680;2023-02-18T00:03:23;98288.75;;;14.64;47.87
55171;BME280;41060;47.510;8.680;2023-02-18T00:05:49;98297.81;;;14.50;48.51
55171;BME280;41060;47.510;8.680;2023-02-18T00:08:16;98129.59;;;13.51;48.75
55171;BME280;41060;47.510;8.680;2023-02-18T00:10:43;98280.00;;;14.50;48.75
55171;BME280;41060;47.510;8.680;2023-02-18T00:13:10;98100.69;;;13.47;48.33
55171;BME280;41060;47.510;8.680;2023-02-18T00:15:37;98271.16;;;14.50;49.28
55171;BME280;41060;47.510;8.680;2023-02-18T00:18:06;98264.44;;;14.22;50.04
55171;BME280;41060;47.510;8.680;2023-02-18T00:20:33;98268.50;;;14.39;50.32
55171;BME280;41060;47.510;8.680;2023-02-18T00:23:03;98261.09;;;14.42;49.72
55171;BME280;41060;47.510;8.680;2023-02-18T00:25:29;98217.38;;;14.45;49.24
55171;BME280;41060;47.510;8.680;2023-02-18T00:27:56;98261.75;;;14.79;49.30
55171;BME280;41060;47.510;8.680;2023-02-18T00:30:23;98214.22;;;14.51;49.37
55171;BME280;41060;47.510;8.680;2023-02-18T00:32:50;98217.50;;;14.54;49.32
55171;BME280;41060;47.510;8.680;2023-02-18T00:35:17;98098.00;;;13.81;49.11
55171;BME280;41060;47.510;8.680;2023-02-18T00:37:45;98260.41;;;14.85;49.25
55171;BME280;41060;47.510;8.680;2023-02-18T00:40:12;98258.00;;;14.82;49.15
55171;BME280;41060;47.510;8.680;2023-02-18T00:42:38;98206.94;;;14.42;48.90
55171;BME280;41060;47.510;8.680;2023-02-18T00:45:06;98255.44;;;14.58;49.76
55171;BME280;41060;47.510;8.680;2023-02-18T00:47:36;98236.41;;;14.63;49.43
55171;BME280;41060;47.510;8.680;2023-02-18T00:50:02;98216.06;;;14.62;49.09
55171;BME280;41060;47.510;8.680;2023-02-18T00:52:31;98260.41;;;14.85;49.35
55171;BME280;41060;47.510;8.680;2023-02-18T00:54:57;98068.22;;;13.76;48.75
55171;BME280;41060;47.510;8.680;2023-02-18T00:57:24;98248.41;;;14.79;49.45
55171;BME280;41060;47.510;8.680;2023-02-18T00:59:53;98247.56;;;14.90;49.30
55171;BME280;41060;47.510;8.680;2023-02-18T01:02:19;98248.28;;;14.70;49.90
55171;BME280;41060;47.510;8.680;2023-02-18T01:04:46;98231.56;;;14.68;49.59
55171;BME280;41060;47.510;8.680;2023-02-18T01:07:13;98036.47;;;13.51;49.45
55171;BME280;41060;47.510;8.680;2023-02-18T01:09:41;98241.38;;;14.56;50.12
55171;BME280;41060;47.510;8.680;2023-02-18T01:12:07;98240.50;;;14.44;50.30
55171;BME280;41060;47.510;8.680;2023-02-18T01:14:35;98003.06;;;13.25;49.83
55171;BME280;41060;47.510;8.680;2023-02-18T01:17:01;98112.66;;;13.87;49.81
55171;BME280;41060;47.510;8.680;2023-02-18T01:19:28;98099.09;;;13.79;49.86
55171;BME280;41060;47.510;8.680;2023-02-18T01:21:57;98223.56;;;14.56;49.64
55171;BME280;41060;47.510;8.680;2023-02-18T01:24:23;98215.56;;;14.45;49.89
55171;BME280;41060;47.510;8.680;2023-02-18T01:26:51;98217.94;;;14.15;50.43
55171;BME280;41060;47.510;8.680;2023-02-18T01:29:18;98207.53;;;13.88;50.24
55171;BME280;41060;47.510;8.680;2023-02-18T01:31:45;98040.09;;;13.39;49.55
55171;BME280;41060;47.510;8.680;2023-02-18T01:34:11;98150.69;;;14.00;49.07
55171;BME280;41060;47.510;8.680;2023-02-18T01:36:38;98202.25;;;14.45;49.21
55171;BME280;41060;47.510;8.680;2023-02-18T01:39:05;98161.63;;;14.19;49.16
55171;BME280;41060;47.510;8.680;2023-02-18T01:41:32;98198.09;;;14.30;49.23
55171;BME280;41060;47.510;8.680;2023-02-18T01:44:18;98174.72;;;14.23;49.02
55171;BME280;41060;47.510;8.680;2023-02-18T01:46:45;98212.13;;;14.21;49.38
55171;BME280;41060;47.510;8.680;2023-02-18T01:49:15;98201.22;;;13.89;50.43
55171;BME280;41060;47.510;8.680;2023-02-18T01:51:46;98139.50;;;13.84;49.55
55171;BME280;41060;47.510;8.680;2023-02-18T01:54:17;98162.75;;;13.58;50.31
55171;BME280;41060;47.510;8.680;2023-02-18T01:56:48;98208.94;;;13.46;51.64
55171;BME280;41060;47.510;8.680;2023-02-18T01:59:24;98182.38;;;13.57;50.95
55171;BME280;41060;47.510;8.680;2023-02-18T02:01:51;98209.47;;;13.86;50.85
55171;BME280;41060;47.510;8.680;2023-02-18T02:04:19;98109.34;;;13.26;50.65
55171;BME280;41060;47.510;8.680;2023-02-18T02:06:46;98146.22;;;13.31;51.35
55171;BME280;41060;47.510;8.680;2023-02-18T02:09:15;98192.88;;;13.59;51.55
55171;BME280;41060;47.510;8.680;2023-02-18T02:12:14;98179.72;;;13.57;51.29
55171;BME280;41060;47.510;8.680;2023-02-18T02:14:54;98167.78;;;13.39;51.39
55171;BME280;41060;47.510;8.680;2023-02-18T02:17:38;98175.09;;;13.24;51.97
55171;BME280;41060;47.510;8.680;2023-02-18T02:26:33;98152.38;;;13.08;52.32
55171;BME280;41060;47.510;8.680;2023-02-18T02:29:35;98063.81;;;12.34;53.14
55171;BME280;41060;47.510;8.680;2023-02-18T02:32:45;98140.47;;;12.64;53.52
55171;BME280;41060;47.510;8.680;2023-02-18T02:35:22;98188.22;;;13.02;53.21
55171;BME280;41060;47.510;8.680;2023-02-18T02:37:57;98182.28;;;12.98;53.10
55171;BME280;41060;47.510;8.680;2023-02-18T02:40:30;98178.34;;;12.91;53.52
55171;BME280;41060;47.510;8.680;2023-02-18T02:43:06;98162.13;;;12.71;53.66
55171;BME280;41060;47.510;8.680;2023-02-18T02:45:45;98176.81;;;12.76;53.94
55171;BME280;41060;47.510;8.680;2023-02-18T02:48:19;98157.41;;;12.87;53.44
55171;BME280;41060;47.510;8.680;2023-02-18T02:50:53;98132.34;;;12.91;53.04
55171;BME280;41060;47.510;8.680;2023-02-18T02:53:27;98148.25;;;13.03;53.00
55171;BME280;41060;47.510;8.680;2023-02-18T02:55:56;98122.47;;;13.17;51.95
55171;BME280;41060;47.510;8.680;2023-02-18T02:58:22;98148.50;;;13.59;51.38
55171;BME280;41060;47.510;8.680;2023-02-18T03:01:00;98143.06;;;13.61;51.33
55171;BME280;41060;47.510;8.680;2023-02-18T03:03:46;98028.59;;;12.80;51.37
55171;BME280;41060;47.510;8.680;2023-02-18T03:06:30;98151.06;;;13.61;51.10
55171;BME280;41060;47.510;8.680;2023-02-18T03:09:05;98109.16;;;13.17;51.37
55171;BME280;41060;47.510;8.680;2023-02-18T03:11:42;98031.53;;;12.88;50.98
55171;BME280;41060;47.510;8.680;2023-02-18T03:14:18;98137.25;;;13.56;50.53
55171;BME280;41060;47.510;8.680;2023-02-18T03:16:50;98150.47;;;13.68;50.12
55171;BME280;41060;47.510;8.680;2023-02-18T03:19:24;98139.28;;;13.52;50.59
55171;BME280;41060;47.510;8.680;2023-02-18T03:21:56;98146.41;;;13.52;50.27
55171;BME280;41060;47.510;8.680;2023-02-18T03:24:28;97948.88;;;12.56;49.97
55171;BME280;41060;47.510;8.680;2023-02-18T03:26:59;98081.06;;;13.36;49.47
55171;BME280;41060;47.510;8.680;2023-02-18T03:29:30;98142.22;;;13.60;49.99
55171;BME280;41060;47.510;8.680;2023-02-18T03:31:59;98139.94;;;13.67;49.56
55171;BME280;41060;47.510;8.680;2023-02-18T03:34:30;98142.31;;;13.48;50.13
55171;BME280;41060;47.510;8.680;2023-02-18T03:37:01;98089.69;;;12.69;50.63
55171;BME280;41060;47.510;8.680;2023-02-18T03:39:34;98143.44;;;13.32;50.31
55171;BME280;41060;47.510;8.680;2023-02-18T03:42:02;98152.44;;;13.43;50.12
55171;BME280;41060;47.510;8.680;2023-02-18T03:44:30;98154.75;;;13.23;50.40
55171;BME280;41060;47.510;8.680;2023-02-18T03:46:56;98155.84;;;13.21;50.58
55171;BME280;41060;47.510;8.680;2023-02-18T03:49:23;98156.75;;;13.09;50.89
55171;BME280;41060;47.510;8.680;2023-02-18T03:51:50;98151.22;;;13.12;50.66
55171;BME280;41060;47.510;8.680;2023-02-18T03:54:18;98119.47;;;12.85;50.89
55171;BME280;41060;47.510;8.680;2023-02-18T03:56:45;98143.78;;;13.04;50.76
55171;BME280;41060;47.510;8.680;2023-02-18T03:59:12;98147.75;;;12.86;51.29
55171;BME280;41060;47.510;8.680;2023-02-18T04:01:41;98090.66;;;12.55;51.05
55171;BME280;41060;47.510;8.680;2023-02-18T04:04:08;98144.66;;;13.05;50.44
55171;BME280;41060;47.510;8.680;2023-02-18T04:06:37;98133.16;;;12.91;50.21
55171;BME280;41060;47.510;8.680;2023-02-18T04:09:04;98108.09;;;12.59;50.75
55171;BME280;41060;47.510;8.680;2023-02-18T04:11:36;98088.22;;;12.52;50.47
55171;BME280;41060;47.510;8.680;2023-02-18T04:14:03;98167.56;;;12.69;50.76
55171;BME280;41060;47.510;8.680;2023-02-18T04:16:29;98162.38;;;12.68;50.75
55171;BME280;41060;47.510;8.680;2023-02-18T04:18:57;98157.97;;;12.79;50.52
55171;BME280;41060;47.510;8.680;2023-02-18T04:21:24;98159.56;;;12.82;50.28
55171;BME280;41060;47.510;8.680;2023-02-18T04:23:51;98032.44;;;12.15;50.30
55171;BME280;41060;47.510;8.680;2023-02-18T04:26:18;98139.97;;;12.95;49.50
55171;BME280;41060;47.510;8.680;2023-02-18T04:28:46;98152.63;;;13.05;49.39
55171;BME280;41060;47.510;8.680;2023-02-18T04:31:13;98145.66;;;13.15;49.26
55171;BME280;41060;47.510;8.680;2023-02-18T04:33:40;98146.28;;;13.18;48.95
55171;BME280;41060;47.510;8.680;2023-02-18T04:36:07;98137.63;;;13.03;49.39
55171;BME280;41060;47.510;8.680;2023-02-18T04:38:33;98129.25;;;13.21;49.00
55171;BME280;41060;47.510;8.680;2023-02-18T04:41:01;98134.88;;;13.05;49.09
55171;BME280;41060;47.510;8.680;2023-02-18T04:43:27;98139.63;;;13.00;49.19
55171;BME280;41060;47.510;8.680;2023-02-18T04:45:55;98138.63;;;12.77;49.70
55171;BME280;41060;47.510;8.680;2023-02-18T04:48:22;98140.97;;;12.69;49.80
55171;BME280;41060;47.510;8.680;2023-02-18T04:50:49;98070.41;;;12.41;49.46
55171;BME280;41060;47.510;8.680;2023-02-18T04:53:15;98115.34;;;12.81;49.13
55171;BME280;41060;47.510;8.680;2023-02-18T04:55:42;98144.88;;;13.25;48.37
55171;BME280;41060;47.510;8.680;2023-02-18T04:58:09;98042.53;;;12.47;48.73
55171;BME280;41060;47.510;8.680;2023-02-18T05:00:35;98145.09;;;13.22;48.29
55171;BME280;41060;47.510;8.680;2023-02-18T05:03:04;98132.69;;;13.34;47.99
55171;BME280;41060;47.510;8.680;2023-02-18T05:05:30;98103.06;;;13.27;47.60
55171;BME280;41060;47.510;8.680;2023-02-18T05:07:57;98083.53;;;13.16;47.61
55171;BME280;41060;47.510;8.680;2023-02-18T05:10:24;98103.09;;;12.91;48.49
55171;BME280;41060;47.510;8.680;2023-02-18T05:12:51;98125.22;;;13.15;48.43
55171;BME280;41060;47.510;8.680;2023-02-18T05:15:17;98128.66;;;13.28;48.13
55171;BME280;41060;47.510;8.680;2023-02-18T05:17:44;98129.78;;;13.37;48.00
55171;BME280;41060;47.510;8.680;2023-02-18T05:20:12;98006.03;;;12.85;47.46
55171;BME280;41060;47.510;8.680;2023-02-18T05:22:39;97941.28;;;12.27;47.44
55171;BME280;41060;47.510;8.680;2023-02-18T05:25:06;98068.94;;;12.97;47.74
55171;BME280;41060;47.510;8.680;2023-02-18T05:27:33;98166.66;;;13.30;47.96
55171;BME280;41060;47.510;8.680;2023-02-18T05:29:59;98145.25;;;13.56;47.50
55171;BME280;41060;47.510;8.680;2023-02-18T05:32:27;98147.56;;;13.36;47.90
55171;BME280;41060;47.510;8.680;2023-02-18T05:34:55;98128.41;;;13.20;48.34
55171;BME280;41060;47.510;8.680;2023-02-18T05:37:23;98133.84;;;13.43;47.77
55171;BME280;41060;47.510;8.680;2023-02-18T05:39:50;98131.88;;;13.45;47.69
55171;BME280;41060;47.510;8.680;2023-02-18T05:42:17;98136.69;;;13.63;47.20
55171;BME280;41060;47.510;8.680;2023-02-18T05:44:46;98140.03;;;13.54;47.41
55171;BME280;41060;47.510;8.680;2023-02-18T05:47:13;98133.25;;;13.50;47.66
55171;BME280;41060;47.510;8.680;2023-02-18T05:49:41;98145.56;;;13.51;47.59
55171;BME280;41060;47.510;8.680;2023-02-18T05:52:08;98139.94;;;13.32;47.85
55171;BME280;41060;47.510;8.680;2023-02-18T05:54:38;98049.47;;;12.73;48.04
55171;BME280;41060;47.510;8.680;2023-02-18T05:57:05;98127.69;;;13.29;47.99
55171;BME280;41060;47.510;8.680;2023-02-18T05:59:31;98049.88;;;13.03;47.65
55171;BME280;41060;47.510;8.680;2023-02-18T06:02:02;98117.88;;;13.43;47.84
55171;BME280;41060;47.510;8.680;2023-02-18T06:04:28;97996.78;;;12.43;48.24
55171;BME280;41060;47.510;8.680;2023-02-18T06:06:55;98064.38;;;12.87;48.05
55171;BME280;41060;47.510;8.680;2023-02-18T06:09:22;98021.88;;;12.26;48.85
55171;BME280;41060;47.510;8.680;2023-02-18T06:11:50;98145.34;;;12.70;49.65
55171;BME280;41060;47.510;8.680;2023-02-18T06:14:17;98137.84;;;12.51;50.05
55171;BME280;41060;47.510;8.680;2023-02-18T06:16:44;97978.88;;;11.47;50.36
55171;BME280;41060;47.510;8.680;2023-02-18T06:19:10;98144.97;;;12.51;50.38
55171;BME280;41060;47.510;8.680;2023-02-18T06:21:37;98094.88;;;12.21;50.33
55171;BME280;41060;47.510;8.680;2023-02-18T06:24:07;98094.88;;;12.21;50.56
55171;BME280;41060;47.510;8.680;2023-02-18T06:26:33;98130.00;;;12.50;50.39
55171;BME280;41060;47.510;8.680;2023-02-18T06:29:01;98133.41;;;12.39;50.51
55171;BME280;41060;47.510;8.680;2023-02-18T06:31:28;98019.94;;;11.79;50.26
55171;BME280;41060;47.510;8.680;2023-02-18T06:33:55;98080.13;;;12.17;50.36
55171;BME280;41060;47.510;8.680;2023-02-18T06:36:21;98059.94;;;12.14;50.22
55171;BME280;41060;47.510;8.680;2023-02-18T06:38:49;97944.47;;;11.83;49.12
55171;BME280;41060;47.510;8.680;2023-02-18T06:41:15;98123.63;;;12.89;48.97
55171;BME280;41060;47.510;8.680;2023-02-18T06:43:42;97929.72;;;11.79;48.91
55171;BME280;41060;47.510;8.680;2023-02-18T06:46:10;98063.28;;;12.42;49.32
55171;BME280;41060;47.510;8.680;2023-02-18T06:48:37;97947.25;;;11.69;49.48
55171;BME280;41060;47.510;8.680;2023-02-18T06:51:05;97995.72;;;11.84;49.37
55171;BME280;41060;47.510;8.680;2023-02-18T06:53:32;98076.50;;;12.31;49.61
55171;BME280;41060;47.510;8.680;2023-02-18T06:55:59;97935.50;;;11.48;49.42
55171;BME280;41060;47.510;8.680;2023-02-18T06:58:25;98039.00;;;12.10;49.61
55171;BME280;41060;47.510;8.680;2023-02-18T07:00:52;98143.91;;;12.41;49.81
55171;BME280;41060;47.510;8.680;2023-02-18T07:03:20;97988.22;;;11.91;49.11
55171;BME280;41060;47.510;8.680;2023-02-18T07:05:47;98120.78;;;12.79;49.07
55171;BME280;41060;47.510;8.680;2023-02-18T07:08:14;98089.22;;;12.75;48.30
55171;BME280;41060;47.510;8.680;2023-02-18T07:10:40;98077.59;;;12.52;48.60
55171;BME280;41060;47.510;8.680;2023-02-18T07:13:07;98115.44;;;12.79;48.80
55171;BME280;41060;47.510;8.680;2023-02-18T07:15:34;98124.84;;;12.72;49.12
55171;BME280;41060;47.510;8.680;2023-02-18T07:18:01;98112.41;;;12.73;49.00
55171;BME280;41060;47.510;8.680;2023-02-18T07:20:29;98120.84;;;12.90;48.90
55171;BME280;41060;47.510;8.680;2023-02-18T07:22:56;98078.94;;;12.94;48.04
55171;BME280;41060;47.510;8.680;2023-02-18T07:25:25;98120.25;;;13.11;48.18
55171;BME280;41060;47.510;8.680;2023-02-18T07:27:51;98115.28;;;13.06;48.18
55171;BME280;41060;47.510;8.680;2023-02-18T07:30:19;97994.47;;;12.39;47.95
55171;BME280;41060;47.510;8.680;2023-02-18T07:32:45;98121.84;;;13.00;48.32
55171;BME280;41060;47.510;8.680;2023-02-18T07:35:15;98064.09;;;12.06;49.06
55171;BME280;41060;47.510;8.680;2023-02-18T07:37:47;98070.78;;;12.48;48.54
55171;BME280;41060;47.510;8.680;2023-02-18T07:40:19;98124.56;;;13.24;47.90
55171;BME280;41060;47.510;8.680;2023-02-18T07:42:49;98081.88;;;13.02;47.71
55171;BME280;41060;47.510;8.680;2023-02-18T07:45:16;98082.09;;;12.99;47.50
55171;BME280;41060;47.510;8.680;2023-02-18T07:47:42;97938.25;;;12.32;47.30
55171;BME280;41060;47.510;8.680;2023-02-18T07:50:13;98071.53;;;13.10;47.42
55171;BME280;41060;47.510;8.680;2023-02-18T07:52:40;97955.97;;;12.44;47.32
55171;BME280;41060;47.510;8.680;2023-02-18T07:55:08;98085.28;;;13.28;47.06
55171;BME280;41060;47.510;8.680;2023-02-18T07:57:35;97987.50;;;12.73;46.73
55171;BME280;41060;47.510;8.680;2023-02-18T08:00:21;98137.06;;;13.35;47.36
55171;BME280;41060;47.510;8.680;2023-02-18T08:02:49;98155.97;;;12.70;48.68
55171;BME280;41060;47.510;8.680;2023-02-18T08:05:15;98013.22;;;12.48;48.22
55171;BME280;41060;47.510;8.680;2023-02-18T08:07:42;98137.09;;;13.22;48.04
55171;BME280;41060;47.510;8.680;2023-02-18T08:10:11;98077.78;;;12.61;47.79
55171;BME280;41060;47.510;8.680;2023-02-18T08:12:37;98119.31;;;12.99;47.91
55171;BME280;41060;47.510;8.680;2023-02-18T08:15:04;98143.69;;;13.06;48.15
55171;BME280;41060;47.510;8.680;2023-02-18T08:17:31;98086.91;;;12.94;47.72
55171;BME280;41060;47.510;8.680;2023-02-18T08:19:58;97992.13;;;12.34;47.71
55171;BME280;41060;47.510;8.680;2023-02-18T08:22:24;98148.22;;;13.51;47.06
55171;BME280;41060;47.510;8.680;2023-02-18T08:24:53;98093.09;;;13.18;46.98
55171;BME280;41060;47.510;8.680;2023-02-18T08:27:21;98145.63;;;13.73;46.67
55171;BME280;41060;47.510;8.680;2023-02-18T08:29:48;98140.38;;;13.85;46.20
55171;BME280;41060;47.510;8.680;2023-02-18T08:32:15;97974.50;;;12.57;46.74
55171;BME280;41060;47.510;8.680;2023-02-18T08:34:42;98172.06;;;13.88;46.34
55171;BME280;41060;47.510;8.680;2023-02-18T08:37:08;97971.13;;;13.25;45.74
55171;BME280;41060;47.510;8.680;2023-02-18T08:39:37;98058.16;;;13.23;46.07
55171;BME280;41060;47.510;8.680;2023-02-18T08:42:04;98144.72;;;13.97;46.14
55171;BME280;41060;47.510;8.680;2023-02-18T08:44:32;98087.13;;;13.85;45.60
55171;BME280;41060;47.510;8.680;2023-02-18T08:46:59;97950.84;;;12.54;46.39
55171;BME280;41060;47.510;8.680;2023-02-18T08:49:25;98098.34;;;13.88;45.83
55171;BME280;41060;47.510;8.680;2023-02-18T08:51:52;97936.81;;;12.87;45.79
55171;BME280;41060;47.510;8.680;2023-02-18T08:54:19;98137.41;;;14.11;45.92
55171;BME280;41060;47.510;8.680;2023-02-18T08:56:46;98075.41;;;14.09;45.36
55171;BME280;41060;47.510;8.680;2023-02-18T08:59:12;98130.88;;;14.60;44.73
55171;BME280;41060;47.510;8.680;2023-02-18T09:01:42;97891.59;;;13.22;44.56
55171;BME280;41060;47.510;8.680;2023-02-18T09:04:09;97952.69;;;13.57;44.87
55171;BME280;41060;47.510;8.680;2023-02-18T09:06:36;98124.72;;;14.60;44.79
55171;BME280;41060;47.510;8.680;2023-02-18T09:09:03;98121.97;;;14.04;46.01
55171;BME280;41060;47.510;8.680;2023-02-18T09:11:30;97883.19;;;12.93;45.28
55171;BME280;41060;47.510;8.680;2023-02-18T09:13:57;98029.38;;;13.63;45.53
55171;BME280;41060;47.510;8.680;2023-02-18T09:16:24;98106.63;;;14.07;45.47
55171;BME280;41060;47.510;8.680;2023-02-18T09:18:53;98110.59;;;13.91;45.75
55171;BME280;41060;47.510;8.680;2023-02-18T09:21:20;98065.38;;;13.45;46.34
55171;BME280;41060;47.510;8.680;2023-02-18T09:23:49;98110.56;;;13.68;46.56
55171;BME280;41060;47.510;8.680;2023-02-18T09:26:18;98114.22;;;13.78;46.63
55171;BME280;41060;47.510;8.680;2023-02-18T09:28:50;98104.75;;;13.63;46.88
55171;BME280;41060;47.510;8.680;2023-02-18T09:31:18;98076.09;;;13.78;46.10
55171;BME280;41060;47.510;8.680;2023-02-18T09:33:47;98075.00;;;13.80;46.28
55171;BME280;41060;47.510;8.680;2023-02-18T09:36:17;98102.63;;;14.02;46.22
55171;BME280;41060;47.510;8.680;2023-02-18T09:38:45;98099.69;;;13.83;46.58
55171;BME280;41060;47.510;8.680;2023-02-18T09:41:21;98104.19;;;14.04;46.54
55171;BME280;41060;47.510;8.680;2023-02-18T09:43:52;98011.78;;;13.38;46.28
55171;BME280;41060;47.510;8.680;2023-02-18T09:46:21;98012.19;;;13.56;46.37
55171;BME280;41060;47.510;8.680;2023-02-18T09:48:52;98096.75;;;14.32;45.75
55171;BME280;41060;47.510;8.680;2023-02-18T09:51:20;98087.91;;;14.20;45.72
55171;BME280;41060;47.510;8.680;2023-02-18T09:53:47;98102.16;;;14.08;46.18
55171;BME280;41060;47.510;8.680;2023-02-18T09:56:26;98114.56;;;14.31;45.56
55171;BME280;41060;47.510;8.680;2023-02-18T09:58:54;98063.06;;;14.42;44.91
55171;BME280;41060;47.510;8.680;2023-02-18T10:01:27;98102.84;;;14.88;44.59
55171;BME280;41060;47.510;8.680;2023-02-18T10:04:01;98115.47;;;14.75;44.34
55171;BME280;41060;47.510;8.680;2023-02-18T10:06:32;98081.06;;;14.72;43.85
55171;BME280;41060;47.510;8.680;2023-02-18T10:09:02;98103.59;;;14.79;44.27
55171;BME280;41060;47.510;8.680;2023-02-18T10:11:34;98105.50;;;14.88;43.70
55171;BME280;41060;47.510;8.680;2023-02-18T10:14:08;98110.22;;;14.84;44.20
55171;BME280;41060;47.510;8.680;2023-02-18T10:16:37;97961.88;;;13.75;44.18
55171;BME280;41060;47.510;8.680;2023-02-18T10:19:08;98044.41;;;14.42;44.39
55171;BME280;41060;47.510;8.680;2023-02-18T10:21:42;97905.44;;;14.03;43.35
55171;BME280;41060;47.510;8.680;2023-02-18T10:24:15;98064.22;;;14.71;43.34
55171;BME280;41060;47.510;8.680;2023-02-18T10:26:45;98130.66;;;15.06;43.59
55171;BME280;41060;47.510;8.680;2023-02-18T10:29:15;98111.66;;;15.00;43.94
55171;BME280;41060;47.510;8.680;2023-02-18T10:31:44;98110.22;;;14.95;43.61
55171;BME280;41060;47.510;8.680;2023-02-18T10:34:20;98102.28;;;15.27;42.98
55171;BME280;41060;47.510;8.680;2023-02-18T10:36:54;98047.47;;;15.23;42.46
55171;BME280;41060;47.510;8.680;2023-02-18T10:39:47;98109.06;;;15.52;42.25
55171;BME280;41060;47.510;8.680;2023-02-18T10:42:30;97990.66;;;15.01;41.89
55171;BME280;41060;47.510;8.680;2023-02-18T10:45:08;98103.06;;;15.39;42.56
55171;BME280;41060;47.510;8.680;2023-02-18T10:47:42;98062.09;;;14.54;43.69
55171;BME280;41060;47.510;8.680;2023-02-18T10:50:21;98097.66;;;14.75;43.96
55171;BME280;41060;47.510;8.680;2023-02-18T10:52:54;98059.44;;;14.97;43.06
55171;BME280;41060;47.510;8.680;2023-02-18T10:55:34;98105.63;;;15.61;42.36
55171;BME280;41060;47.510;8.680;2023-02-18T10:58:24;98100.78;;;15.34;43.02
55171;BME280;41060;47.510;8.680;2023-02-18T11:00:52;98071.63;;;15.11;43.31
55171;BME280;41060;47.510;8.680;2023-02-18T11:03:20;98069.44;;;14.73;43.50
55171;BME280;41060;47.510;8.680;2023-02-18T11:05:50;98097.69;;;14.64;44.42
55171;BME280;41060;47.510;8.680;2023-02-18T11:08:21;98088.75;;;14.32;45.20
55171;BME280;41060;47.510;8.680;2023-02-18T11:10:48;98087.09;;;14.85;44.10
55171;BME280;41060;47.510;8.680;2023-02-18T11:13:17;98073.00;;;14.94;43.99
55171;BME280;41060;47.510;8.680;2023-02-18T11:15:58;97889.03;;;13.76;43.83
55171;BME280;41060;47.510;8.680;2023-02-18T11:18:31;98073.59;;;15.41;42.99
55171;BME280;41060;47.510;8.680;2023-02-18T11:21:01;98031.84;;;15.40;42.62
55171;BME280;41060;47.510;8.680;2023-02-18T11:23:31;98079.41;;;15.97;41.98
55171;BME280;41060;47.510;8.680;2023-02-18T11:26:12;98068.50;;;15.38;42.52
55171;BME280;41060;47.510;8.680;2023-02-18T11:28:42;98084.09;;;15.10;43.53
55171;BME280;41060;47.510;8.680;2023-02-18T11:31:11;97967.31;;;14.18;43.85
55171;BME280;41060;47.510;8.680;2023-02-18T11:33:43;98017.44;;;14.13;44.76
55171;BME280;41060;47.510;8.680;2023-02-18T11:36:18;98061.31;;;14.74;44.05
55171;BME280;41060;47.510;8.680;2023-02-18T11:38:52;98042.78;;;15.05;43.28
55171;BME280;41060;47.510;8.680;2023-02-18T11:41:22;98053.66;;;15.24;42.98
55171;BME280;41060;47.510;8.680;2023-02-18T11:43:58;98049.75;;;15.28;42.66
55171;BME280;41060;47.510;8.680;2023-02-18T11:46:26;97951.88;;;14.44;43.61
55171;BME280;41060;47.510;8.680;2023-02-18T11:48:54;97977.75;;;14.85;43.03
55171;BME280;41060;47.510;8.680;2023-02-18T11:51:24;97992.22;;;15.35;42.41
55171;BME280;41060;47.510;8.680;2023-02-18T11:53:58;97952.22;;;15.03;42.56
55171;BME280;41060;47.510;8.680;2023-02-18T11:56:28;98015.72;;;15.41;42.37
55171;BME280;41060;47.510;8.680;2023-02-18T11:58:55;97930.03;;;15.44;42.73
55171;BME280;41060;47.510;8.680;2023-02-18T12:01:42;97938.94;;;16.15;41.19
55171;BME280;41060;47.510;8.680;2023-02-18T12:04:12;97990.66;;;16.64;41.27
55171;BME280;41060;47.510;8.680;2023-02-18T12:06:45;97987.81;;;17.52;40.92
55171;BME280;41060;47.510;8.680;2023-02-18T12:09:22;97986.22;;;17.69;39.00
55171;BME280;41060;47.510;8.680;2023-02-18T12:11:53;97982.38;;;17.24;38.82
55171;BME280;41060;47.510;8.680;2023-02-18T12:14:22;97989.53;;;16.85;39.32
55171;BME280;41060;47.510;8.680;2023-02-18T12:17:09;97974.47;;;16.84;39.87
55171;BME280;41060;47.510;8.680;2023-02-18T12:22:42;97964.03;;;16.43;40.06
55171;BME280;41060;47.510;8.680;2023-02-18T12:25:21;97958.03;;;16.89;39.79
55171;BME280;41060;47.510;8.680;2023-02-18T12:27:58;97940.44;;;17.06;38.96
55171;BME280;41060;47.510;8.680;2023-02-18T12:30:38;97959.00;;;17.07;39.17
55171;BME280;41060;47.510;8.680;2023-02-18T12:33:15;97896.53;;;17.45;38.00
55171;BME280;41060;47.510;8.680;2023-02-18T12:35:53;97949.28;;;17.25;38.02
55171;BME280;41060;47.510;8.680;2023-02-18T12:38:58;97957.56;;;17.42;38.13
55171;BME280;41060;47.510;8.680;2023-02-18T12:41:52;97947.31;;;17.08;38.41
55171;BME280;41060;47.510;8.680;2023-02-18T12:44:33;97923.56;;;17.52;38.23
55171;BME280;41060;47.510;8.680;2023-02-18T12:47:17;97943.50;;;17.86;37.07
55171;BME280;41060;47.510;8.680;2023-02-18T12:52:56;97812.06;;;17.23;37.25
55171;BME280;41060;47.510;8.680;2023-02-18T12:55:43;97941.50;;;17.88;37.41
55171;BME280;41060;47.510;8.680;2023-02-18T12:58:24;97929.38;;;17.94;37.21
55171;BME280;41060;47.510;8.680;2023-02-18T13:01:05;97926.50;;;17.95;36.71
55171;BME280;41060;47.510;8.680;2023-02-18T13:06:47;97899.50;;;17.79;36.95
55171;BME280;41060;47.510;8.680;2023-02-18T13:09:25;97911.34;;;18.14;36.46
55171;BME280;41060;47.510;8.680;2023-02-18T13:12:00;97896.91;;;18.24;36.43
55171;BME280;41060;47.510;8.680;2023-02-18T13:14:43;97828.97;;;17.61;36.60
55171;BME280;41060;47.510;8.680;2023-02-18T13:17:13;97765.69;;;17.33;36.45
55171;BME280;41060;47.510;8.680;2023-02-18T13:19:47;97897.56;;;17.35;37.94
55171;BME280;41060;47.510;8.680;2023-02-18T13:22:22;97824.00;;;17.39;36.79
55171;BME280;41060;47.510;8.680;2023-02-18T13:24:50;97819.72;;;17.73;36.81
55171;BME280;41060;47.510;8.680;2023-02-18T13:27:21;97823.31;;;17.64;36.66
55171;BME280;41060;47.510;8.680;2023-02-18T13:30:06;97869.47;;;18.66;35.85
55171;BME280;41060;47.510;8.680;2023-02-18T13:32:38;97891.41;;;18.79;35.21